sensor_id;sensor_type;location;lat;lon;timestamp;pressure;altitude;pressure_sealevel;temperature;humidity
7058;BME280;3570;43.080;25.628;2022-07-29T00:00:00;-20111.03;;;22.66;100.00
7058;BME280;3570;43.080;25.628;2022-07-29T00:02:45;-20104.53;;;22.43;100.00
7058;BME280;3570;43.080;25.628;2022-07-29T00:05:29;-20105.53;;;22.47;100.00
7058;BME280;3570;43.080;25.628;2022-07-29T00:08:14;-20101.63;;;22.33;100.00
7058;BME280;3570;43.080;25.628;2022-07-29T00:10:59;-20099.19;;;22.25;100.00
7058;BME280;3570;43.080;25.628;2022-07-29T00:13:43;-20103.53;;;22.40;100.00
7058;BME280;3570;43.080;25.628;2022-07-29T00:16:27;-20104.25;;;22.42;100.00
7058;BME280;3570;43.080;25.628;2022-07-29T00:19:11;-20096.00;;;22.14;100.00
7058;BME280;3570;43.080;25.628;2022-07-29T00:21:55;-20113.22;;;22.74;100.00
7058;BME280;3570;43.080;25.628;2022-07-29T00:24:39;-20124.78;;;23.14;100.00
7058;BME280;3570;43.080;25.628;2022-07-29T00:27:23;-20124.06;;;23.11;100.00
7058;BME280;3570;43.080;25.628;2022-07-29T00:30:08;-20124.94;;;23.14;100.00
7058;BME280;3570;43.080;25.628;2022-07-29T00:32:53;-20130.28;;;23.33;100.00
7058;BME280;3570;43.080;25.628;2022-07-29T00:35:37;-20139.09;;;23.64;100.00
7058;BME280;3570;43.080;25.628;2022-07-29T00:38:30;-20140.09;;;23.67;100.00
7058;BME280;3570;43.080;25.628;2022-07-29T00:41:14;-20141.97;;;23.74;100.00
7058;BME280;3570;43.080;25.628;2022-07-29T00:43:58;-20141.41;;;23.72;100.00
7058;BME280;3570;43.080;25.628;2022-07-29T00:46:42;-20143.44;;;23.79;100.00
7058;BME280;3570;43.080;25.628;2022-07-29T00:49:26;-20140.53;;;23.69;100.00
7058;BME280;3570;43.080;25.628;2022-07-29T00:52:11;-20143.13;;;23.78;100.00
7058;BME280;3570;43.080;25.628;2022-07-29T00:54:56;-20141.97;;;23.74;100.00
7058;BME280;3570;43.080;25.628;2022-07-29T00:57:42;-20137.94;;;23.60;100.00
7058;BME280;3570;43.080;25.628;2022-07-29T01:00:28;-20145.75;;;23.87;100.00
7058;BME280;3570;43.080;25.628;2022-07-29T01:03:13;-20145.16;;;23.85;100.00
7058;BME280;3570;43.080;25.628;2022-07-29T01:05:56;-20139.09;;;23.64;100.00
7058;BME280;3570;43.080;25.628;2022-07-29T01:08:41;-20145.16;;;23.85;100.00
7058;BME280;3570;43.080;25.628;2022-07-29T01:11:26;-20147.75;;;23.94;100.00
7058;BME280;3570;43.080;25.628;2022-07-29T01:14:11;-20146.03;;;23.88;100.00
7058;BME280;3570;43.080;25.628;2022-07-29T01:17:02;-20145.16;;;23.85;100.00
7058;BME280;3570;43.080;25.628;2022-07-29T01:26:36;-20117.84;;;22.90;100.00
7058;BME280;3570;43.080;25.628;2022-07-29T01:29:39;-20118.84;;;22.93;100.00
7058;BME280;3570;43.080;25.628;2022-07-29T01:32:32;-20089.34;;;21.91;100.00
7058;BME280;3570;43.080;25.628;2022-07-29T01:35:20;-20062.13;;;20.96;100.00
7058;BME280;3570;43.080;25.628;2022-07-29T01:38:13;-20044.88;;;20.36;100.00
7058;BME280;3570;43.080;25.628;2022-07-29T01:41:06;-20041.69;;;20.25;100.00
7058;BME280;3570;43.080;25.628;2022-07-29T01:44:22;-20053.13;;;20.65;100.00
7058;BME280;3570;43.080;25.628;2022-07-29T01:47:12;-20067.03;;;21.13;100.00
7058;BME280;3570;43.080;25.628;2022-07-29T01:50:00;-20070.22;;;21.24;100.00
7058;BME280;3570;43.080;25.628;2022-07-29T01:52:52;-20070.81;;;21.26;100.00
7058;BME280;3570;43.080;25.628;2022-07-29T01:55:39;-20095.84;;;22.13;100.00
7058;BME280;3570;43.080;25.628;2022-07-29T01:58:26;-20090.94;;;21.96;100.00
7058;BME280;3570;43.080;25.628;2022-07-29T02:01:13;-20092.97;;;22.03;100.00
7058;BME280;3570;43.080;25.628;2022-07-29T02:04:01;-20091.22;;;21.97;100.00
7058;BME280;3570;43.080;25.628;2022-07-29T02:06:48;-20099.03;;;22.24;100.00
7058;BME280;3570;43.080;25.628;2022-07-29T02:09:36;-20109.88;;;22.62;100.00
7058;BME280;3570;43.080;25.628;2022-07-29T02:12:21;-20113.38;;;22.74;100.00
7058;BME280;3570;43.080;25.628;2022-07-29T02:15:06;-20120.16;;;22.98;100.00
7058;BME280;3570;43.080;25.628;2022-07-29T02:18:14;-20127.25;;;23.22;100.00
7058;BME280;3570;43.080;25.628;2022-07-29T02:20:59;-20130.41;;;23.33;100.00
7058;BME280;3570;43.080;25.628;2022-07-29T02:23:45;-20121.31;;;23.02;100.00
7058;BME280;3570;43.080;25.628;2022-07-29T02:26:32;-20105.41;;;22.46;100.00
7058;BME280;3570;43.080;25.628;2022-07-29T02:29:16;-20099.19;;;22.25;100.00
7058;BME280;3570;43.080;25.628;2022-07-29T02:32:03;-20100.78;;;22.30;100.00
7058;BME280;3570;43.080;25.628;2022-07-29T02:34:49;-20102.22;;;22.35;100.00
7058;BME280;3570;43.080;25.628;2022-07-29T02:37:36;-20093.09;;;22.04;100.00
7058;BME280;3570;43.080;25.628;2022-07-29T02:40:21;-20107.00;;;22.52;100.00
7058;BME280;3570;43.080;25.628;2022-07-29T02:43:06;-20101.34;;;22.32;100.00
7058;BME280;3570;43.080;25.628;2022-07-29T02:45:53;-20106.13;;;22.49;100.00
7058;BME280;3570;43.080;25.628;2022-07-29T02:48:43;-20111.19;;;22.67;100.00
7058;BME280;3570;43.080;25.628;2022-07-29T02:51:43;-20111.91;;;22.69;100.00
7058;BME280;3570;43.080;25.628;2022-07-29T02:54:39;-20117.97;;;22.90;100.00
7058;BME280;3570;43.080;25.628;2022-07-29T02:57:39;-20105.25;;;22.46;100.00
7058;BME280;3570;43.080;25.628;2022-07-29T03:00:27;-20090.34;;;21.94;100.00
7058;BME280;3570;43.080;25.628;2022-07-29T03:03:15;-20089.91;;;21.93;100.00
7058;BME280;3570;43.080;25.628;2022-07-29T03:06:01;-20096.00;;;22.14;100.00
7058;BME280;3570;43.080;25.628;2022-07-29T03:08:46;-20107.00;;;22.52;100.00
7058;BME280;3570;43.080;25.628;2022-07-29T03:11:31;-20104.53;;;22.43;100.00
7058;BME280;3570;43.080;25.628;2022-07-29T03:14:18;-20101.50;;;22.33;100.00
7058;BME280;3570;43.080;25.628;2022-07-29T03:17:02;-20103.81;;;22.41;100.00
7058;BME280;3570;43.080;25.628;2022-07-29T03:19:47;-20096.88;;;22.17;100.00
7058;BME280;3570;43.080;25.628;2022-07-29T03:22:32;-20106.41;;;22.50;100.00
7058;BME280;3570;43.080;25.628;2022-07-29T03:25:18;-20113.94;;;22.76;100.00
7058;BME280;3570;43.080;25.628;2022-07-29T03:28:03;-20121.75;;;23.03;100.00
7058;BME280;3570;43.080;25.628;2022-07-29T03:30:48;-20125.22;;;23.15;100.00
7058;BME280;3570;43.080;25.628;2022-07-29T03:33:32;-20117.56;;;22.89;100.00
7058;BME280;3570;43.080;25.628;2022-07-29T03:36:16;-20092.53;;;22.02;100.00
7058;BME280;3570;43.080;25.628;2022-07-29T03:39:01;-20073.13;;;21.34;100.00
7058;BME280;3570;43.080;25.628;2022-07-29T03:41:48;-20062.25;;;20.97;100.00
7058;BME280;3570;43.080;25.628;2022-07-29T03:44:34;-20052.69;;;20.63;100.00
7058;BME280;3570;43.080;25.628;2022-07-29T03:47:20;-20053.44;;;20.66;100.00
7058;BME280;3570;43.080;25.628;2022-07-29T03:50:07;-20067.91;;;21.16;100.00
7058;BME280;3570;43.080;25.628;2022-07-29T03:52:52;-20082.09;;;21.66;100.00
7058;BME280;3570;43.080;25.628;2022-07-29T03:55:41;-20096.88;;;22.17;100.00
7058;BME280;3570;43.080;25.628;2022-07-29T03:58:26;-20107.56;;;22.54;100.00
7058;BME280;3570;43.080;25.628;2022-07-29T04:01:11;-20100.47;;;22.29;100.00
7058;BME280;3570;43.080;25.628;2022-07-29T04:03:56;-20110.31;;;22.64;100.00
7058;BME280;3570;43.080;25.628;2022-07-29T04:06:42;-20114.09;;;22.77;100.00
7058;BME280;3570;43.080;25.628;2022-07-29T04:09:26;-20123.03;;;23.08;100.00
7058;BME280;3570;43.080;25.628;2022-07-29T04:12:10;-20124.94;;;23.14;100.00
7058;BME280;3570;43.080;25.628;2022-07-29T04:14:54;-20120.72;;;23.00;100.00
7058;BME280;3570;43.080;25.628;2022-07-29T04:17:38;-20129.84;;;23.31;100.00
7058;BME280;3570;43.080;25.628;2022-07-29T04:20:22;-20130.41;;;23.33;100.00
7058;BME280;3570;43.080;25.628;2022-07-29T04:23:06;-20126.38;;;23.19;100.00
7058;BME280;3570;43.080;25.628;2022-07-29T04:25:50;-20130.56;;;23.34;100.00
7058;BME280;3570;43.080;25.628;2022-07-29T04:28:34;-20135.19;;;23.50;100.00
7058;BME280;3570;43.080;25.628;2022-07-29T04:31:18;-20139.53;;;23.65;100.00
7058;BME280;3570;43.080;25.628;2022-07-29T04:34:02;-20141.69;;;23.73;100.00
7058;BME280;3570;43.080;25.628;2022-07-29T04:36:46;-20142.28;;;23.75;100.00
7058;BME280;3570;43.080;25.628;2022-07-29T04:39:30;-20143.44;;;23.79;100.00
7058;BME280;3570;43.080;25.628;2022-07-29T04:42:14;-20145.31;;;23.85;100.00
7058;BME280;3570;43.080;25.628;2022-07-29T04:44:57;-20146.47;;;23.89;100.00
7058;BME280;3570;43.080;25.628;2022-07-29T04:47:41;-20147.03;;;23.91;100.00
7058;BME280;3570;43.080;25.628;2022-07-29T04:50:25;-20139.25;;;23.64;100.00
7058;BME280;3570;43.080;25.628;2022-07-29T04:53:09;-20136.22;;;23.54;100.00
7058;BME280;3570;43.080;25.628;2022-07-29T04:55:53;-20127.53;;;23.23;100.00
7058;BME280;3570;43.080;25.628;2022-07-29T04:58:37;-20118.13;;;22.91;100.00
7058;BME280;3570;43.080;25.628;2022-07-29T05:01:21;-20118.28;;;22.91;100.00
7058;BME280;3570;43.080;25.628;2022-07-29T05:04:05;-20111.78;;;22.69;100.00
7058;BME280;3570;43.080;25.628;2022-07-29T05:06:49;-20100.91;;;22.31;100.00
7058;BME280;3570;43.080;25.628;2022-07-29T05:09:33;-20097.75;;;22.20;100.00
7058;BME280;3570;43.080;25.628;2022-07-29T05:12:17;-20104.09;;;22.42;100.00
7058;BME280;3570;43.080;25.628;2022-07-29T05:15:01;-20096.44;;;22.15;100.00
7058;BME280;3570;43.080;25.628;2022-07-29T05:17:45;-20112.94;;;22.73;100.00
7058;BME280;3570;43.080;25.628;2022-07-29T05:20:30;-20117.69;;;22.89;100.00
7058;BME280;3570;43.080;25.628;2022-07-29T05:23:14;-20116.97;;;22.87;100.00
7058;BME280;3570;43.080;25.628;2022-07-29T05:25:58;-20111.34;;;22.67;100.00
7058;BME280;3570;43.080;25.628;2022-07-29T05:28:42;-20112.63;;;22.72;100.00
7058;BME280;3570;43.080;25.628;2022-07-29T05:31:26;-20119.88;;;22.97;100.00
7058;BME280;3570;43.080;25.628;2022-07-29T05:34:10;-20117.56;;;22.89;100.00
7058;BME280;3570;43.080;25.628;2022-07-29T05:36:54;-20120.88;;;23.00;100.00
7058;BME280;3570;43.080;25.628;2022-07-29T05:39:38;-20131.72;;;23.38;100.00
7058;BME280;3570;43.080;25.628;2022-07-29T05:42:22;-20138.94;;;23.63;100.00
7058;BME280;3570;43.080;25.628;2022-07-29T05:45:06;-20144.28;;;23.82;100.00
7058;BME280;3570;43.080;25.628;2022-07-29T05:47:50;-20151.22;;;24.06;100.00
7058;BME280;3570;43.080;25.628;2022-07-29T05:50:34;-20150.94;;;24.05;100.00
7058;BME280;3570;43.080;25.628;2022-07-29T05:53:18;-20144.59;;;23.83;100.00
7058;BME280;3570;43.080;25.628;2022-07-29T05:56:03;-20151.09;;;24.05;100.00
7058;BME280;3570;43.080;25.628;2022-07-29T05:58:48;-20164.81;;;24.53;100.00
7058;BME280;3570;43.080;25.628;2022-07-29T06:01:32;-20174.19;;;24.86;100.00
7058;BME280;3570;43.080;25.628;2022-07-29T06:04:17;-20173.03;;;24.82;100.00
7058;BME280;3570;43.080;25.628;2022-07-29T06:07:01;-20156.28;;;24.23;100.00
7058;BME280;3570;43.080;25.628;2022-07-29T06:09:45;-20164.50;;;24.52;100.00
7058;BME280;3570;43.080;25.628;2022-07-29T06:12:29;-20183.56;;;25.18;100.00
7058;BME280;3570;43.080;25.628;2022-07-29T06:15:13;-20181.84;;;25.12;100.00
7058;BME280;3570;43.080;25.628;2022-07-29T06:17:58;-20173.19;;;24.82;100.00
7058;BME280;3570;43.080;25.628;2022-07-29T06:20:43;-20152.09;;;24.09;100.00
7058;BME280;3570;43.080;25.628;2022-07-29T06:23:26;-20182.41;;;25.14;100.00
7058;BME280;3570;43.080;25.628;2022-07-29T06:26:10;-20179.81;;;25.05;100.00
7058;BME280;3570;43.080;25.628;2022-07-29T06:28:54;-20161.63;;;24.42;100.00
7058;BME280;3570;43.080;25.628;2022-07-29T06:31:38;-20161.06;;;24.40;100.00
7058;BME280;3570;43.080;25.628;2022-07-29T06:34:23;-20177.78;;;24.98;100.00
7058;BME280;3570;43.080;25.628;2022-07-29T06:37:08;-20198.88;;;25.72;100.00
7058;BME280;3570;43.080;25.628;2022-07-29T06:39:52;-20210.41;;;26.12;100.00
7058;BME280;3570;43.080;25.628;2022-07-29T06:42:56;-20222.78;;;26.55;100.00
7058;BME280;3570;43.080;25.628;2022-07-29T06:45:40;-20225.38;;;26.64;100.00
7058;BME280;3570;43.080;25.628;2022-07-29T06:48:25;-20222.78;;;26.55;100.00
7058;BME280;3570;43.080;25.628;2022-07-29T06:51:10;-20223.38;;;26.57;100.00
7058;BME280;3570;43.080;25.628;2022-07-29T06:53:55;-20214.72;;;26.27;100.00
7058;BME280;3570;43.080;25.628;2022-07-29T06:56:40;-20216.16;;;26.32;100.00
7058;BME280;3570;43.080;25.628;2022-07-29T06:59:25;-20220.06;;;26.46;88.33
7058;BME280;3570;43.080;25.628;2022-07-29T07:02:09;-20230.88;;;26.83;84.11
7058;BME280;3570;43.080;25.628;2022-07-29T07:04:53;-20234.91;;;26.97;81.12
7058;BME280;3570;43.080;25.628;2022-07-29T07:07:37;-20222.06;;;26.53;80.99
7058;BME280;3570;43.080;25.628;2022-07-29T07:10:21;-20225.09;;;26.63;82.61
7058;BME280;3570;43.080;25.628;2022-07-29T07:13:05;-20242.38;;;27.24;82.61
7058;BME280;3570;43.080;25.628;2022-07-29T07:15:49;-20258.78;;;27.81;80.56
7058;BME280;3570;43.080;25.628;2022-07-29T07:18:35;-20270.75;;;28.23;76.43
7058;BME280;3570;43.080;25.628;2022-07-29T07:21:19;-20282.53;;;28.64;72.16
7058;BME280;3570;43.080;25.628;2022-07-29T07:24:03;-20283.09;;;28.66;69.34
7058;BME280;3570;43.080;25.628;2022-07-29T07:26:47;-20288.00;;;28.83;70.94
7058;BME280;3570;43.080;25.628;2022-07-29T07:29:31;-20296.78;;;29.14;70.45
7058;BME280;3570;43.080;25.628;2022-07-29T07:32:15;-20295.91;;;29.11;68.88
7058;BME280;3570;43.080;25.628;2022-07-29T07:35:00;-20298.34;;;29.19;69.38
7058;BME280;3570;43.080;25.628;2022-07-29T07:37:45;-20302.94;;;29.35;66.82
7058;BME280;3570;43.080;25.628;2022-07-29T07:40:29;-20313.72;;;29.73;63.90
7058;BME280;3570;43.080;25.628;2022-07-29T07:43:13;-20323.50;;;30.07;58.14
7058;BME280;3570;43.080;25.628;2022-07-29T07:45:57;-20317.16;;;29.85;57.17
7058;BME280;3570;43.080;25.628;2022-07-29T07:48:42;-20306.38;;;29.47;57.57
7058;BME280;3570;43.080;25.628;2022-07-29T07:51:26;-20304.25;;;29.40;59.61
7058;BME280;3570;43.080;25.628;2022-07-29T07:54:11;-20322.47;;;30.04;60.84
7058;BME280;3570;43.080;25.628;2022-07-29T07:56:54;-20333.25;;;30.41;57.16
7058;BME280;3570;43.080;25.628;2022-07-29T07:59:39;-20340.41;;;30.67;59.31
7058;BME280;3570;43.080;25.628;2022-07-29T08:02:23;-20346.03;;;30.86;59.29
7058;BME280;3570;43.080;25.628;2022-07-29T08:05:08;-20353.03;;;31.11;58.74
7058;BME280;3570;43.080;25.628;2022-07-29T08:07:53;-20358.94;;;31.31;57.01
7058;BME280;3570;43.080;25.628;2022-07-29T08:10:38;-20362.50;;;31.44;56.38
7058;BME280;3570;43.080;25.628;2022-07-29T08:13:38;-20361.81;;;31.41;55.72
7058;BME280;3570;43.080;25.628;2022-07-29T08:16:22;-20366.97;;;31.60;54.06
7058;BME280;3570;43.080;25.628;2022-07-29T08:19:09;-20371.25;;;31.75;53.46
7058;BME280;3570;43.080;25.628;2022-07-29T08:21:53;-20371.97;;;31.77;53.78
7058;BME280;3570;43.080;25.628;2022-07-29T08:24:37;-20367.09;;;31.60;51.83
7058;BME280;3570;43.080;25.628;2022-07-29T08:27:27;-20361.94;;;31.42;52.41
7058;BME280;3570;43.080;25.628;2022-07-29T08:30:14;-20373.25;;;31.82;52.72
7058;BME280;3570;43.080;25.628;2022-07-29T08:32:59;-20381.44;;;32.10;51.52
7058;BME280;3570;43.080;25.628;2022-07-29T08:35:43;-20393.59;;;32.53;48.87
7058;BME280;3570;43.080;25.628;2022-07-29T08:38:27;-20400.91;;;32.79;49.81
7058;BME280;3570;43.080;25.628;2022-07-29T08:41:11;-20409.78;;;33.10;46.65
7058;BME280;3570;43.080;25.628;2022-07-29T08:43:55;-20416.50;;;33.34;45.61
7058;BME280;3570;43.080;25.628;2022-07-29T08:46:39;-20411.50;;;33.16;46.11
7058;BME280;3570;43.080;25.628;2022-07-29T08:49:24;-20418.06;;;33.39;44.61
7058;BME280;3570;43.080;25.628;2022-07-29T08:52:10;-20426.09;;;33.67;44.16
7058;BME280;3570;43.080;25.628;2022-07-29T08:54:55;-20434.81;;;33.98;43.39
7058;BME280;3570;43.080;25.628;2022-07-29T08:57:40;-20429.94;;;33.81;42.98
7058;BME280;3570;43.080;25.628;2022-07-29T09:00:25;-20429.81;;;33.80;43.83
7058;BME280;3570;43.080;25.628;2022-07-29T09:03:12;-20424.09;;;33.60;40.63
7058;BME280;3570;43.080;25.628;2022-07-29T09:05:58;-20408.22;;;33.04;41.53
7058;BME280;3570;43.080;25.628;2022-07-29T09:08:43;-20412.34;;;33.19;42.97
7058;BME280;3570;43.080;25.628;2022-07-29T09:11:27;-20410.22;;;33.11;40.96
7058;BME280;3570;43.080;25.628;2022-07-29T09:14:13;-20404.63;;;32.92;43.11
7058;BME280;3570;43.080;25.628;2022-07-29T09:16:57;-20419.78;;;33.45;40.07
7058;BME280;3570;43.080;25.628;2022-07-29T09:19:41;-20424.66;;;33.62;40.47
7058;BME280;3570;43.080;25.628;2022-07-29T09:22:29;-20434.25;;;33.96;39.58
7058;BME280;3570;43.080;25.628;2022-07-29T09:25:15;-20392.16;;;32.48;40.88
7058;BME280;3570;43.080;25.628;2022-07-29T09:28:17;-20419.66;;;33.45;42.49
7058;BME280;3570;43.080;25.628;2022-07-29T09:31:01;-20466.38;;;35.09;38.01
7058;BME280;3570;43.080;25.628;2022-07-29T09:33:46;-20503.47;;;36.40;35.12
7058;BME280;3570;43.080;25.628;2022-07-29T09:36:30;-20516.03;;;36.84;33.45
7058;BME280;3570;43.080;25.628;2022-07-29T09:39:16;-20540.53;;;37.70;32.04
7058;BME280;3570;43.080;25.628;2022-07-29T09:42:10;-20502.63;;;36.37;32.46
7058;BME280;3570;43.080;25.628;2022-07-29T09:44:54;-20508.63;;;36.58;32.92
7058;BME280;3570;43.080;25.628;2022-07-29T09:47:46;-20530.56;;;37.35;32.11
7058;BME280;3570;43.080;25.628;2022-07-29T09:50:39;-20551.06;;;38.08;31.17
7058;BME280;3570;43.080;25.628;2022-07-29T09:53:31;-20564.44;;;38.55;30.01
7058;BME280;3570;43.080;25.628;2022-07-29T09:56:16;-20581.47;;;39.15;29.64
7058;BME280;3570;43.080;25.628;2022-07-29T09:59:05;-20608.47;;;40.11;28.34
7058;BME280;3570;43.080;25.628;2022-07-29T10:01:50;-20604.78;;;39.98;28.29
7058;BME280;3570;43.080;25.628;2022-07-29T10:04:41;-20606.47;;;40.04;26.82
7058;BME280;3570;43.080;25.628;2022-07-29T10:07:26;-20614.13;;;40.31;27.43
7058;BME280;3570;43.080;25.628;2022-07-29T10:10:23;-20618.13;;;40.45;27.70
7058;BME280;3570;43.080;25.628;2022-07-29T10:13:09;-20568.97;;;38.71;28.21
7058;BME280;3570;43.080;25.628;2022-07-29T10:15:53;-20554.63;;;38.20;28.71
7058;BME280;3570;43.080;25.628;2022-07-29T10:18:39;-20573.38;;;38.87;29.33
7058;BME280;3570;43.080;25.628;2022-07-29T10:21:23;-20601.22;;;39.85;28.58
7058;BME280;3570;43.080;25.628;2022-07-29T10:24:09;-20606.34;;;40.03;27.84
7058;BME280;3570;43.080;25.628;2022-07-29T10:26:57;-20622.09;;;40.59;28.12
7058;BME280;3570;43.080;25.628;2022-07-29T10:29:41;-20636.25;;;41.09;26.85
7058;BME280;3570;43.080;25.628;2022-07-29T10:35:33;-20657.22;;;41.84;26.45
7058;BME280;3570;43.080;25.628;2022-07-29T10:44:22;-20693.31;;;43.12;25.22
7058;BME280;3570;43.080;25.628;2022-07-29T10:47:07;-20693.72;;;43.14;24.77
7058;BME280;3570;43.080;25.628;2022-07-29T10:49:59;-20627.19;;;40.77;26.02
7058;BME280;3570;43.080;25.628;2022-07-29T10:55:39;-20556.47;;;38.27;28.70
7058;BME280;3570;43.080;25.628;2022-07-29T10:58:28;-20602.63;;;39.90;27.79
7058;BME280;3570;43.080;25.628;2022-07-29T11:01:29;-20605.19;;;39.99;26.70
7058;BME280;3570;43.080;25.628;2022-07-29T11:04:14;-20631.72;;;40.93;27.13
7058;BME280;3570;43.080;25.628;2022-07-29T11:09:42;-20700.81;;;43.39;25.38
7058;BME280;3570;43.080;25.628;2022-07-29T11:15:22;-20622.66;;;40.61;25.52
7058;BME280;3570;43.080;25.628;2022-07-29T11:18:08;-20621.66;;;40.58;25.88
7058;BME280;3570;43.080;25.628;2022-07-29T11:20:52;-20597.97;;;39.74;26.54
7058;BME280;3570;43.080;25.628;2022-07-29T11:23:39;-20656.53;;;41.81;24.97
7058;BME280;3570;43.080;25.628;2022-07-29T11:26:27;-20703.34;;;43.48;24.95
7058;BME280;3570;43.080;25.628;2022-07-29T11:29:21;-20692.88;;;43.11;24.55
7058;BME280;3570;43.080;25.628;2022-07-29T11:32:14;-20638.97;;;41.19;26.19
7058;BME280;3570;43.080;25.628;2022-07-29T11:35:17;-20625.91;;;40.73;27.64
7058;BME280;3570;43.080;25.628;2022-07-29T11:41:27;-20584.59;;;39.26;29.21
7058;BME280;3570;43.080;25.628;2022-07-29T11:44:13;-20588.31;;;39.39;28.85
7058;BME280;3570;43.080;25.628;2022-07-29T11:46:59;-20613.56;;;40.29;28.27
7058;BME280;3570;43.080;25.628;2022-07-29T11:49:44;-20660.63;;;41.96;26.58
7058;BME280;3570;43.080;25.628;2022-07-29T11:52:40;-20694.72;;;43.17;25.54
7058;BME280;3570;43.080;25.628;2022-07-29T11:55:29;-20737.09;;;44.68;23.89
7058;BME280;3570;43.080;25.628;2022-07-29T11:58:21;-20767.25;;;45.76;23.08
7058;BME280;3570;43.080;25.628;2022-07-29T12:01:06;-20757.81;;;45.42;22.66
7058;BME280;3570;43.080;25.628;2022-07-29T12:04:02;-20737.09;;;44.68;23.75
7058;BME280;3570;43.080;25.628;2022-07-29T12:06:50;-20736.09;;;44.64;23.89
7058;BME280;3570;43.080;25.628;2022-07-29T12:09:35;-20758.09;;;45.43;23.32
7058;BME280;3570;43.080;25.628;2022-07-29T12:12:21;-20793.56;;;46.70;21.98
7058;BME280;3570;43.080;25.628;2022-07-29T12:17:57;-20769.09;;;45.82;22.72
7058;BME280;3570;43.080;25.628;2022-07-29T12:20:42;-20744.97;;;44.96;23.01
7058;BME280;3570;43.080;25.628;2022-07-29T12:23:26;-20733.84;;;44.56;22.88
7058;BME280;3570;43.080;25.628;2022-07-29T12:26:10;-20707.00;;;43.61;23.69
7058;BME280;3570;43.080;25.628;2022-07-29T12:28:54;-20711.25;;;43.76;23.72
7058;BME280;3570;43.080;25.628;2022-07-29T12:31:38;-20751.06;;;45.18;23.15
7058;BME280;3570;43.080;25.628;2022-07-29T12:34:23;-20790.75;;;46.60;22.01
7058;BME280;3570;43.080;25.628;2022-07-29T12:37:10;-20808.19;;;47.22;21.13
7058;BME280;3570;43.080;25.628;2022-07-29T12:39:55;-20776.56;;;46.09;21.79
7058;BME280;3570;43.080;25.628;2022-07-29T12:42:39;-20789.91;;;46.57;21.57
7058;BME280;3570;43.080;25.628;2022-07-29T12:45:30;-20810.44;;;47.30;20.85
7058;BME280;3570;43.080;25.628;2022-07-29T12:48:15;-20823.25;;;47.76;20.15
7058;BME280;3570;43.080;25.628;2022-07-29T12:51:01;-20845.28;;;48.55;19.83
7058;BME280;3570;43.080;25.628;2022-07-29T12:54:11;-20830.53;;;48.02;19.98
7058;BME280;3570;43.080;25.628;2022-07-29T12:56:59;-20814.94;;;47.46;20.68
7058;BME280;3570;43.080;25.628;2022-07-29T12:59:44;-20831.38;;;48.05;19.66
7058;BME280;3570;43.080;25.628;2022-07-29T13:02:28;-20823.81;;;47.78;20.27
7058;BME280;3570;43.080;25.628;2022-07-29T13:05:12;-20816.78;;;47.53;20.83
7058;BME280;3570;43.080;25.628;2022-07-29T13:08:12;-20830.97;;;48.03;20.23
7058;BME280;3570;43.080;25.628;2022-07-29T13:10:57;-20839.94;;;48.36;19.60
7058;BME280;3570;43.080;25.628;2022-07-29T13:13:50;-20841.34;;;48.41;20.26
7058;BME280;3570;43.080;25.628;2022-07-29T13:16:37;-20848.63;;;48.67;20.21
7058;BME280;3570;43.080;25.628;2022-07-29T13:19:46;-20845.84;;;48.57;19.54
7058;BME280;3570;43.080;25.628;2022-07-29T13:22:30;-20850.75;;;48.74;19.39
7058;BME280;3570;43.080;25.628;2022-07-29T13:25:23;-20885.50;;;49.99;18.25
7058;BME280;3570;43.080;25.628;2022-07-29T13:28:08;-20891.53;;;50.21;18.11
7058;BME280;3570;43.080;25.628;2022-07-29T13:30:52;-20866.47;;;49.31;18.58
7058;BME280;3570;43.080;25.628;2022-07-29T13:33:35;-20865.47;;;49.27;18.41
7058;BME280;3570;43.080;25.628;2022-07-29T13:36:19;-20869.41;;;49.41;18.62
7058;BME280;3570;43.080;25.628;2022-07-29T13:39:04;-20777.53;;;46.12;20.23
7058;BME280;3570;43.080;25.628;2022-07-29T13:41:48;-20754.28;;;45.29;21.09
7058;BME280;3570;43.080;25.628;2022-07-29T13:44:33;-20763.16;;;45.61;21.33
7058;BME280;3570;43.080;25.628;2022-07-29T13:47:18;-20806.50;;;47.16;20.17
7058;BME280;3570;43.080;25.628;2022-07-29T13:50:04;-20870.25;;;49.44;18.63
7058;BME280;3570;43.080;25.628;2022-07-29T13:52:49;-20884.25;;;49.94;18.07
7058;BME280;3570;43.080;25.628;2022-07-29T13:55:34;-20819.72;;;47.63;19.92
7058;BME280;3570;43.080;25.628;2022-07-29T13:58:18;-20733.28;;;44.54;22.33
7058;BME280;3570;43.080;25.628;2022-07-29T14:01:02;-20696.84;;;43.25;23.41
7058;BME280;3570;43.080;25.628;2022-07-29T14:03:46;-20668.84;;;42.25;24.33
7058;BME280;3570;43.080;25.628;2022-07-29T14:06:30;-20646.19;;;41.45;24.84
7058;BME280;3570;43.080;25.628;2022-07-29T14:09:14;-20689.50;;;42.98;24.38
7058;BME280;3570;43.080;25.628;2022-07-29T14:11:59;-20736.66;;;44.66;21.52
7058;BME280;3570;43.080;25.628;2022-07-29T14:14:43;-20737.66;;;44.70;22.04
7058;BME280;3570;43.080;25.628;2022-07-29T14:17:27;-20751.34;;;45.19;22.17
7058;BME280;3570;43.080;25.628;2022-07-29T14:20:11;-20786.53;;;46.44;21.61
7058;BME280;3570;43.080;25.628;2022-07-29T14:22:55;-20759.22;;;45.47;21.98
7058;BME280;3570;43.080;25.628;2022-07-29T14:25:40;-20680.72;;;42.67;24.12
7058;BME280;3570;43.080;25.628;2022-07-29T14:28:24;-20636.25;;;41.09;25.72
7058;BME280;3570;43.080;25.628;2022-07-29T14:31:08;-20595.41;;;39.65;27.81
7058;BME280;3570;43.080;25.628;2022-07-29T14:33:52;-20571.97;;;38.82;28.74
7058;BME280;3570;43.080;25.628;2022-07-29T14:36:36;-20561.59;;;38.45;28.74
7058;BME280;3570;43.080;25.628;2022-07-29T14:39:22;-20629.31;;;40.85;26.55
7058;BME280;3570;43.080;25.628;2022-07-29T14:42:06;-20701.38;;;43.41;24.10
7058;BME280;3570;43.080;25.628;2022-07-29T14:44:51;-20763.88;;;45.63;21.83
7058;BME280;3570;43.080;25.628;2022-07-29T14:47:37;-20790.19;;;46.58;20.73
7058;BME280;3570;43.080;25.628;2022-07-29T14:50:22;-20768.53;;;45.80;21.15
7058;BME280;3570;43.080;25.628;2022-07-29T14:53:06;-20755.69;;;45.34;21.30
7058;BME280;3570;43.080;25.628;2022-07-29T14:55:50;-20738.50;;;44.73;22.01
7058;BME280;3570;43.080;25.628;2022-07-29T14:58:35;-20797.22;;;46.83;20.30
7058;BME280;3570;43.080;25.628;2022-07-29T15:01:19;-20793.28;;;46.69;20.31
7058;BME280;3570;43.080;25.628;2022-07-29T15:04:03;-20725.09;;;44.25;22.16